createdAt,value
2023-01-17T00:02:26.215Z,4.38
2023-01-17T00:05:11.601Z,4.30
2023-01-17T00:07:56.795Z,4.18
2023-01-17T00:10:27.211Z,4.30
2023-01-17T00:12:58.896Z,4.16
2023-01-17T00:15:29.107Z,4.12
2023-01-17T00:17:57.109Z,4.04
2023-01-17T00:20:44.899Z,4.24
2023-01-17T00:23:34.380Z,4.36
2023-01-17T00:26:05.678Z,4.14
2023-01-17T00:28:35.552Z,4.42
2023-01-17T00:31:03.037Z,4.17
2023-01-17T00:33:29.857Z,4.17
2023-01-17T00:35:58.440Z,4.13
2023-01-17T00:38:26.379Z,4.21
2023-01-17T00:40:53.406Z,4.20
2023-01-17T00:43:40.585Z,4.18
2023-01-17T00:46:27.674Z,4.34
2023-01-17T00:49:12.958Z,4.15
2023-01-17T00:51:58.323Z,4.16
2023-01-17T00:54:43.534Z,4.08
2023-01-17T00:57:28.953Z,4.17
2023-01-17T01:00:14.157Z,4.08
2023-01-17T01:03:01.047Z,4.00
2023-01-17T01:05:47.355Z,3.92
2023-01-17T01:08:38.324Z,3.87
2023-01-17T01:11:25.564Z,3.81
2023-01-17T01:14:10.830Z,3.84
2023-01-17T01:16:56.008Z,3.92
2023-01-17T01:19:42.701Z,3.97
2023-01-17T01:22:27.883Z,3.94
2023-01-17T01:25:13.159Z,4.14
2023-01-17T01:27:58.500Z,4.16
2023-01-17T01:30:43.680Z,4.10
2023-01-17T01:33:20.748Z,3.91
2023-01-17T01:35:51.913Z,4.07
2023-01-17T01:38:20.961Z,4.09
2023-01-17T01:40:50.624Z,4.05
2023-01-17T01:43:21.055Z,3.96
2023-01-17T01:45:53.236Z,4.07
2023-01-17T01:48:33.038Z,4.05
2023-01-17T01:51:04.911Z,3.85
2023-01-17T01:53:36.638Z,3.92
2023-01-17T01:56:09.244Z,3.62
2023-01-17T01:58:38.852Z,3.73
2023-01-17T02:01:09.332Z,3.82
2023-01-17T02:03:38.732Z,3.83
2023-01-17T02:06:21.041Z,3.84
2023-01-17T02:08:49.518Z,3.79
2023-01-17T02:11:17.561Z,4.06
2023-01-17T02:13:45.580Z,3.93
2023-01-17T02:16:25.304Z,3.82
2023-01-17T02:19:05.807Z,3.81
2023-01-17T02:30:32.112Z,3.38
2023-01-17T02:33:07.267Z,3.53
2023-01-17T02:35:43.485Z,3.35
2023-01-17T02:38:25.631Z,3.53
2023-01-17T02:40:57.225Z,3.19
2023-01-17T02:43:26.635Z,2.95
2023-01-17T02:45:56.230Z,2.81
2023-01-17T02:48:28.572Z,2.81
2023-01-17T02:51:12.270Z,2.83
2023-01-17T02:53:58.041Z,2.99
2023-01-17T02:56:40.928Z,3.06
2023-01-17T02:59:19.087Z,3.06
2023-01-17T03:02:01.138Z,3.10
2023-01-17T03:04:35.835Z,3.08
2023-01-17T03:07:07.184Z,3.12
2023-01-17T03:09:35.663Z,3.19
2023-01-17T03:12:05.393Z,3.28
2023-01-17T03:14:33.498Z,3.36
2023-01-17T03:17:03.130Z,3.27
2023-01-17T03:19:31.387Z,3.29
2023-01-17T03:21:59.514Z,3.30
2023-01-17T03:24:27.495Z,3.28
2023-01-17T03:26:55.550Z,3.42
2023-01-17T03:29:23.617Z,3.38
2023-01-17T03:31:51.674Z,3.29
2023-01-17T03:34:21.136Z,3.32
2023-01-17T03:36:49.393Z,3.27
2023-01-17T03:39:17.767Z,3.37
2023-01-17T03:41:45.894Z,3.29
2023-01-17T03:44:13.817Z,3.32
2023-01-17T03:46:41.785Z,3.22
2023-01-17T03:49:11.257Z,3.27
2023-01-17T03:51:40.719Z,3.35
2023-01-17T03:54:09.027Z,3.42
2023-01-17T03:56:37.129Z,3.29
2023-01-17T03:59:05.344Z,3.46
2023-01-17T04:01:33.494Z,3.29
2023-01-17T04:04:01.616Z,3.39
2023-01-17T04:06:29.605Z,3.30
2023-01-17T04:08:59.036Z,3.32
2023-01-17T04:11:27.200Z,3.47
2023-01-17T04:13:55.512Z,3.36
2023-01-17T04:16:28.743Z,3.43
2023-01-17T04:18:57.328Z,3.44
2023-01-17T04:21:25.596Z,3.20
2023-01-17T04:23:53.538Z,3.06
2023-01-17T04:26:23.081Z,2.93
2023-01-17T04:28:51.111Z,3.08
2023-01-17T04:31:19.058Z,3.01
2023-01-17T04:33:47.067Z,3.03
2023-01-17T04:36:15.794Z,3.01
2023-01-17T04:38:45.856Z,3.18
2023-01-17T04:41:14.105Z,2.99
2023-01-17T04:43:43.817Z,3.04
2023-01-17T04:46:12.892Z,3.10
2023-01-17T04:48:41.081Z,3.03
2023-01-17T04:51:09.141Z,3.02
2023-01-17T04:53:37.127Z,3.23
2023-01-17T04:56:06.056Z,3.12
2023-01-17T04:58:34.182Z,3.18
2023-01-17T05:01:04.989Z,2.86
2023-01-17T05:03:33.191Z,2.95
2023-01-17T05:06:01.641Z,2.96
2023-01-17T05:08:29.687Z,2.91
2023-01-17T05:10:57.753Z,2.98
2023-01-17T05:13:25.847Z,2.99
2023-01-17T05:15:54.002Z,3.12
2023-01-17T05:18:23.476Z,2.94
2023-01-17T05:20:51.678Z,2.80
2023-01-17T05:23:19.980Z,2.79
2023-01-17T05:25:48.033Z,2.76
2023-01-17T05:28:16.206Z,2.75
2023-01-17T05:30:44.494Z,2.81
2023-01-17T05:33:12.750Z,2.85
2023-01-17T05:35:42.253Z,2.86
2023-01-17T05:38:10.524Z,2.88
2023-01-17T05:40:38.552Z,2.95
2023-01-17T05:43:06.736Z,2.80
2023-01-17T05:45:35.211Z,2.96
2023-01-17T05:48:04.409Z,2.75
2023-01-17T05:50:34.455Z,3.06
2023-01-17T05:53:05.713Z,2.87
2023-01-17T05:55:34.344Z,3.01
2023-01-17T05:58:02.877Z,2.77
2023-01-17T06:00:31.840Z,2.92
2023-01-17T06:03:01.045Z,2.72
2023-01-17T06:05:30.220Z,2.79
2023-01-17T06:07:58.603Z,2.93
2023-01-17T06:10:29.503Z,2.85
2023-01-17T06:13:06.607Z,2.88
2023-01-17T06:15:36.761Z,2.88
2023-01-17T06:18:06.555Z,2.81
2023-01-17T06:20:35.260Z,2.81
2023-01-17T06:23:04.412Z,2.95
2023-01-17T06:25:38.381Z,3.02
2023-01-17T06:28:07.767Z,3.04
2023-01-17T06:30:36.124Z,2.99
2023-01-17T06:33:05.697Z,2.94
2023-01-17T06:35:34.490Z,2.95
2023-01-17T06:38:02.535Z,2.94
2023-01-17T06:40:30.968Z,3.03
2023-01-17T06:43:02.865Z,3.09
2023-01-17T06:45:31.829Z,3.15
2023-01-17T06:48:01.028Z,2.78
2023-01-17T06:50:29.159Z,2.80
2023-01-17T06:52:58.543Z,2.76
2023-01-17T06:55:28.838Z,2.77
2023-01-17T06:57:57.443Z,2.81
2023-01-17T07:00:27.716Z,2.74
2023-01-17T07:02:56.137Z,2.71
2023-01-17T07:05:24.189Z,2.78
2023-01-17T07:07:53.627Z,2.73
2023-01-17T07:10:23.669Z,2.68
2023-01-17T07:12:52.545Z,2.85
2023-01-17T07:15:20.629Z,2.80
2023-01-17T07:17:50.285Z,2.79
2023-01-17T07:20:18.341Z,2.85
2023-01-17T07:22:46.810Z,2.87
2023-01-17T07:25:15.064Z,2.74
2023-01-17T07:27:43.063Z,2.86
2023-01-17T07:30:12.489Z,2.81
2023-01-17T07:32:40.535Z,2.90
2023-01-17T07:35:10.930Z,3.12
2023-01-17T07:37:39.167Z,2.93
2023-01-17T07:40:08.278Z,2.98
2023-01-17T07:42:36.322Z,2.98
2023-01-17T07:45:04.434Z,3.22
2023-01-17T07:47:33.982Z,3.05
2023-01-17T07:50:02.814Z,2.95
2023-01-17T07:52:32.406Z,2.98
2023-01-17T07:55:00.972Z,2.91
2023-01-17T07:57:29.252Z,2.74
2023-01-17T07:59:57.371Z,2.98
2023-01-17T08:02:25.338Z,2.75
2023-01-17T08:04:53.295Z,2.95
2023-01-17T08:07:21.395Z,2.95
2023-01-17T08:09:50.871Z,2.99
2023-01-17T08:12:19.220Z,2.78
2023-01-17T08:14:47.228Z,2.97
2023-01-17T08:17:17.684Z,2.76
2023-01-17T08:19:45.986Z,3.12
2023-01-17T08:22:14.038Z,3.07
2023-01-17T08:24:42.225Z,2.94
2023-01-17T08:27:11.752Z,2.87
2023-01-17T08:29:42.178Z,2.67
2023-01-17T08:32:10.089Z,2.82
2023-01-17T08:34:38.112Z,2.78
2023-01-17T08:37:06.328Z,2.88
2023-01-17T08:39:34.519Z,2.82
2023-01-17T08:42:02.566Z,2.89
2023-01-17T08:44:32.224Z,2.87
2023-01-17T08:47:00.512Z,2.89
2023-01-17T08:49:28.553Z,2.94
2023-01-17T08:51:56.495Z,2.89
2023-01-17T08:54:24.659Z,2.81
2023-01-17T08:56:54.921Z,2.86
2023-01-17T08:59:23.483Z,2.91
2023-01-17T09:01:53.016Z,3.06
2023-01-17T09:04:21.275Z,2.84
2023-01-17T09:06:49.652Z,2.89
2023-01-17T09:09:18.507Z,2.88
2023-01-17T09:11:46.465Z,3.07
2023-01-17T09:14:15.500Z,3.42
2023-01-17T09:16:45.716Z,3.56
2023-01-17T09:19:15.259Z,3.90
2023-01-17T09:21:43.532Z,4.14
2023-01-17T09:24:11.608Z,4.46
2023-01-17T09:26:39.954Z,4.45
2023-01-17T09:29:08.511Z,4.66
2023-01-17T09:31:36.575Z,4.70
2023-01-17T09:34:04.819Z,4.71
2023-01-17T09:36:34.889Z,4.84
2023-01-17T09:39:04.715Z,4.90
2023-01-17T09:41:35.190Z,4.86
2023-01-17T09:44:08.601Z,5.29
2023-01-17T09:46:41.031Z,5.07
2023-01-17T09:49:13.175Z,4.99
2023-01-17T09:51:43.515Z,4.68
2023-01-17T09:54:22.044Z,4.66
2023-01-17T09:56:58.000Z,4.59
2023-01-17T09:59:35.423Z,4.51
2023-01-17T10:02:18.767Z,4.27
2023-01-17T10:05:03.671Z,4.47
2023-01-17T10:07:46.880Z,4.37
2023-01-17T10:10:27.379Z,4.12
2023-01-17T10:13:00.256Z,4.31
2023-01-17T10:16:00.089Z,4.50
2023-01-17T10:18:44.566Z,4.45
2023-01-17T10:21:19.576Z,4.37
2023-01-17T10:24:04.864Z,4.28
2023-01-17T10:26:35.076Z,4.22
2023-01-17T10:29:07.202Z,4.21
2023-01-17T10:31:41.929Z,4.28
2023-01-17T10:34:16.239Z,4.42
2023-01-17T10:36:49.877Z,4.30
2023-01-17T10:39:22.915Z,4.40
2023-01-17T10:41:56.563Z,4.13
2023-01-17T10:44:34.350Z,4.38
2023-01-17T10:47:08.212Z,4.32
2023-01-17T10:49:41.660Z,4.37
2023-01-17T10:52:17.899Z,4.40
2023-01-17T10:55:06.838Z,4.49
2023-01-17T10:57:41.837Z,4.51
2023-01-17T11:00:26.479Z,4.48
2023-01-17T11:02:54.502Z,4.79
2023-01-17T11:05:26.131Z,4.77
2023-01-17T11:08:02.391Z,4.92
2023-01-17T11:10:41.402Z,5.05
2023-01-17T11:13:24.744Z,4.91
2023-01-17T11:15:57.568Z,5.11
2023-01-17T11:18:29.776Z,5.18
2023-01-17T11:21:12.272Z,5.09
2023-01-17T11:23:43.045Z,5.17
2023-01-17T11:26:24.852Z,5.28
2023-01-17T11:28:53.856Z,5.47
2023-01-17T11:31:27.853Z,5.23
2023-01-17T11:34:16.607Z,5.70
2023-01-17T11:36:44.787Z,5.81
2023-01-17T11:39:29.813Z,6.21
2023-01-17T11:41:59.195Z,5.73
2023-01-17T11:44:30.531Z,5.54
2023-01-17T11:47:19.103Z,5.51
2023-01-17T11:49:49.362Z,5.40
2023-01-17T11:52:25.727Z,5.18
2023-01-17T11:54:56.525Z,5.12
2023-01-17T11:57:29.424Z,5.25
2023-01-17T12:00:13.055Z,5.10
2023-01-17T12:03:15.330Z,4.99
2023-01-17T12:05:57.284Z,5.11
2023-01-17T12:08:37.072Z,5.26
2023-01-17T12:11:17.023Z,5.23
2023-01-17T12:14:01.851Z,5.23
2023-01-17T12:16:49.185Z,5.20
2023-01-17T12:19:36.652Z,5.33
2023-01-17T12:22:40.509Z,5.33
2023-01-17T12:25:24.677Z,5.54
2023-01-17T12:28:11.509Z,5.59
2023-01-17T12:30:50.839Z,5.75
2023-01-17T12:33:25.276Z,5.62
2023-01-17T12:35:58.101Z,5.65
2023-01-17T12:38:34.527Z,5.28
2023-01-17T12:41:07.255Z,5.37
2023-01-17T12:43:38.000Z,5.41
2023-01-17T12:46:22.163Z,5.64
2023-01-17T12:49:00.616Z,5.92
2023-01-17T12:51:33.826Z,5.96
2023-01-17T12:54:10.975Z,5.84
2023-01-17T12:56:45.177Z,5.64
2023-01-17T12:59:19.949Z,5.61
2023-01-17T13:01:58.210Z,5.59
2023-01-17T13:04:30.942Z,5.49
2023-01-17T13:07:09.433Z,5.46
2023-01-17T13:09:45.200Z,5.47
2023-01-17T13:12:15.623Z,5.49
2023-01-17T13:14:46.190Z,5.32
2023-01-17T13:17:28.364Z,5.40
2023-01-17T13:20:02.542Z,5.31
2023-01-17T13:22:38.403Z,5.28
2023-01-17T13:25:23.165Z,5.29
2023-01-17T13:28:13.156Z,5.28
2023-01-17T13:31:32.204Z,5.45
2023-01-17T13:34:22.750Z,5.17
2023-01-17T13:37:10.956Z,5.17
2023-01-17T13:40:04.376Z,5.07
2023-01-17T13:42:45.648Z,5.04
2023-01-17T13:45:21.591Z,4.88
2023-01-17T13:47:52.107Z,4.99
2023-01-17T13:50:53.109Z,5.04
2023-01-17T13:53:57.926Z,5.10
2023-01-17T13:56:33.149Z,5.17
2023-01-17T13:59:07.999Z,5.14
2023-01-17T14:01:54.156Z,5.14
2023-01-17T14:04:24.142Z,5.18
2023-01-17T14:06:57.018Z,5.08
2023-01-17T14:09:29.071Z,5.16
2023-01-17T14:12:00.911Z,5.11
2023-01-17T14:14:46.337Z,5.22
2023-01-17T14:17:45.623Z,5.14
2023-01-17T14:20:51.803Z,5.24
2023-01-17T14:23:57.516Z,5.13
2023-01-17T14:26:48.054Z,5.24
2023-01-17T14:29:45.693Z,5.01
2023-01-17T14:32:16.081Z,5.22
2023-01-17T14:34:46.059Z,4.94
2023-01-17T14:37:19.979Z,5.10
2023-01-17T14:39:51.251Z,5.06
2023-01-17T14:42:22.640Z,5.10
2023-01-17T14:44:54.016Z,5.14
2023-01-17T14:47:22.521Z,5.15
2023-01-17T14:50:10.278Z,5.11
2023-01-17T14:52:38.353Z,5.00
2023-01-17T14:55:17.117Z,5.10
2023-01-17T14:57:54.558Z,5.08
2023-01-17T15:00:25.369Z,5.04
2023-01-17T15:02:54.830Z,4.98
2023-01-17T15:05:26.725Z,4.98
2023-01-17T15:07:57.703Z,4.92
2023-01-17T15:10:31.740Z,4.96
2023-01-17T15:13:09.363Z,4.95
2023-01-17T15:15:39.985Z,4.88
2023-01-17T15:18:29.586Z,4.80
2023-01-17T15:21:01.232Z,4.88
2023-01-17T15:23:34.575Z,4.79
2023-01-17T15:26:07.173Z,4.75
2023-01-17T15:28:36.242Z,4.68
2023-01-17T15:31:10.251Z,4.71
2023-01-17T15:33:40.818Z,4.71
2023-01-17T15:36:11.231Z,4.64
2023-01-17T15:38:49.084Z,4.64
2023-01-17T15:41:22.615Z,4.66
2023-01-17T15:43:51.470Z,4.57
2023-01-17T15:46:34.262Z,4.51
2023-01-17T15:49:24.195Z,4.38
2023-01-17T15:51:54.429Z,4.36
2023-01-17T15:54:41.599Z,4.25
2023-01-17T15:57:21.828Z,4.38
2023-01-17T15:59:54.411Z,4.29
2023-01-17T16:02:35.979Z,4.17
2023-01-17T16:05:27.644Z,4.11
2023-01-17T16:07:57.562Z,4.00
2023-01-17T16:10:28.167Z,4.07
2023-01-17T16:12:57.693Z,3.90
2023-01-17T16:15:26.411Z,4.02
2023-01-17T16:17:57.501Z,3.97
2023-01-17T16:20:30.647Z,3.88
2023-01-17T16:23:00.372Z,3.90
2023-01-17T16:25:32.380Z,3.96
2023-01-17T16:28:02.843Z,3.92
2023-01-17T16:30:32.721Z,3.82
2023-01-17T16:33:01.380Z,4.02
2023-01-17T16:35:31.843Z,3.93
2023-01-17T16:38:02.278Z,3.89
2023-01-17T16:40:32.107Z,3.87
2023-01-17T16:43:02.356Z,3.78
2023-01-17T16:45:30.388Z,3.78
2023-01-17T16:47:58.438Z,3.76
2023-01-17T16:50:26.460Z,3.68
2023-01-17T16:52:56.355Z,3.65
2023-01-17T16:55:26.032Z,3.69
2023-01-17T16:57:57.960Z,3.69
2023-01-17T17:00:27.839Z,3.62
2023-01-17T17:02:56.211Z,3.61
2023-01-17T17:05:26.333Z,3.69
2023-01-17T17:07:55.024Z,3.60
2023-01-17T17:10:25.210Z,3.56
2023-01-17T17:12:53.708Z,3.50
2023-01-17T17:15:22.341Z,3.41
2023-01-17T17:17:52.645Z,3.39
2023-01-17T17:20:21.104Z,3.32
2023-01-17T17:22:52.497Z,3.29
2023-01-17T17:25:20.642Z,3.21
2023-01-17T17:27:48.594Z,3.18
2023-01-17T17:30:17.325Z,3.10
2023-01-17T17:32:48.160Z,3.06
2023-01-17T17:35:18.110Z,3.01
2023-01-17T17:37:46.307Z,2.91
2023-01-17T17:40:15.001Z,2.85
2023-01-17T17:42:43.777Z,2.82
2023-01-17T17:45:12.508Z,2.74
2023-01-17T17:47:40.503Z,2.70
2023-01-17T17:50:10.051Z,2.58
2023-01-17T17:52:39.810Z,2.56
2023-01-17T17:55:09.174Z,2.58
2023-01-17T17:57:37.221Z,2.48
2023-01-17T18:00:06.614Z,2.40
2023-01-17T18:02:34.695Z,2.44
2023-01-17T18:05:03.607Z,2.46
2023-01-17T18:07:32.320Z,2.36
2023-01-17T18:10:01.750Z,2.31
2023-01-17T18:12:29.777Z,2.26
2023-01-17T18:14:57.886Z,2.15
2023-01-17T18:17:26.189Z,2.14
2023-01-17T18:19:54.374Z,2.18
2023-01-17T18:22:22.403Z,2.06
2023-01-17T18:24:50.533Z,2.10
2023-01-17T18:27:19.902Z,2.05
2023-01-17T18:29:49.175Z,1.99
2023-01-17T18:32:17.311Z,1.85
2023-01-17T18:34:45.747Z,1.82
2023-01-17T18:37:13.740Z,1.75
2023-01-17T18:39:42.774Z,1.75
2023-01-17T18:42:12.386Z,1.76
2023-01-17T18:44:43.173Z,1.76
2023-01-17T18:47:13.061Z,1.70
2023-01-17T18:49:41.801Z,1.76
2023-01-17T18:52:10.441Z,1.46
2023-01-17T18:54:38.594Z,1.44
2023-01-17T18:57:06.691Z,1.42
2023-01-17T18:59:34.838Z,1.55
2023-01-17T19:02:04.382Z,1.43
2023-01-17T19:04:34.101Z,1.44
2023-01-17T19:07:02.089Z,1.38
2023-01-17T19:09:32.377Z,1.36
2023-01-17T19:12:01.334Z,1.35
2023-01-17T19:14:29.638Z,1.28
2023-01-17T19:16:58.050Z,1.28
2023-01-17T19:19:27.662Z,1.31
2023-01-17T19:21:55.710Z,1.21
2023-01-17T19:24:23.923Z,1.14
2023-01-17T19:26:53.181Z,1.17
2023-01-17T19:29:23.125Z,1.18
2023-01-17T19:31:51.832Z,1.22
2023-01-17T19:34:21.063Z,1.17
2023-01-17T19:36:53.083Z,1.16
2023-01-17T19:39:22.493Z,1.10
2023-01-17T19:41:51.123Z,1.13
2023-01-17T19:44:19.200Z,1.03
2023-01-17T19:46:47.462Z,1.02
2023-01-17T19:49:19.699Z,0.94
2023-01-17T19:51:49.606Z,0.79
2023-01-17T19:54:19.176Z,0.93
2023-01-17T19:56:47.609Z,0.97
2023-01-17T19:59:16.057Z,1.00
2023-01-17T20:01:44.381Z,1.05
2023-01-17T20:04:13.958Z,1.21
2023-01-17T20:06:42.063Z,1.10
2023-01-17T20:09:10.179Z,0.99
2023-01-17T20:11:42.168Z,0.85
2023-01-17T20:14:14.591Z,1.02
2023-01-17T20:16:43.623Z,0.94
2023-01-17T20:19:11.722Z,0.88
2023-01-17T20:21:39.715Z,0.79
2023-01-17T20:24:09.056Z,0.59
2023-01-17T20:26:37.618Z,0.78
2023-01-17T20:29:10.140Z,0.75
2023-01-17T20:31:39.804Z,0.72
2023-01-17T20:34:10.022Z,0.89
2023-01-17T20:36:38.368Z,0.79
2023-01-17T20:39:07.971Z,0.64
2023-01-17T20:41:37.669Z,0.75
2023-01-17T20:44:10.237Z,0.59
2023-01-17T20:46:41.303Z,0.73
2023-01-17T20:49:14.687Z,0.52
2023-01-17T20:51:44.307Z,0.42
2023-01-17T20:54:14.284Z,0.54
2023-01-17T20:56:43.160Z,0.48
2023-01-17T20:59:15.639Z,0.51
2023-01-17T21:01:45.028Z,0.34
2023-01-17T21:04:14.767Z,0.48
2023-01-17T21:06:44.316Z,0.37
2023-01-17T21:09:15.180Z,0.40
2023-01-17T21:11:43.429Z,0.41
2023-01-17T21:14:11.466Z,0.32
2023-01-17T21:16:41.235Z,0.34
2023-01-17T21:19:12.097Z,0.41
2023-01-17T21:21:40.775Z,0.37
2023-01-17T21:24:08.892Z,0.26
2023-01-17T21:26:38.857Z,0.22
2023-01-17T21:29:07.182Z,0.27
2023-01-17T21:31:36.864Z,0.32
2023-01-17T21:34:08.094Z,0.40
2023-01-17T21:36:37.908Z,0.32
2023-01-17T21:39:08.692Z,0.30
2023-01-17T21:41:38.843Z,0.39
2023-01-17T21:44:09.945Z,0.50
2023-01-17T21:46:39.967Z,0.14
2023-01-17T21:49:12.110Z,0.27
2023-01-17T21:51:57.646Z,0.24
2023-01-17T21:54:40.971Z,0.12
2023-01-17T21:57:26.906Z,-0.02
2023-01-17T21:59:54.944Z,-0.07
2023-01-17T22:02:23.061Z,-0.06
2023-01-17T22:04:54.527Z,-0.12
2023-01-17T22:07:22.808Z,-0.07
2023-01-17T22:09:50.829Z,-0.10
2023-01-17T22:12:18.749Z,-0.13
2023-01-17T22:14:46.758Z,-0.15
2023-01-17T22:17:14.713Z,-0.06
2023-01-17T22:19:42.729Z,-0.12
2023-01-17T22:22:12.240Z,-0.08
2023-01-17T22:24:40.896Z,0.06
2023-01-17T22:27:10.034Z,0.15
2023-01-17T22:29:38.408Z,0.03
2023-01-17T22:32:06.543Z,0.01
2023-01-17T22:34:34.633Z,-0.11
2023-01-17T22:37:04.706Z,-0.03
2023-01-17T22:39:34.303Z,-0.05
2023-01-17T22:42:02.396Z,-0.22
2023-01-17T22:44:30.712Z,-0.28
2023-01-17T22:46:58.850Z,-0.28
2023-01-17T22:49:26.891Z,-0.26
2023-01-17T22:51:54.986Z,-0.36
2023-01-17T22:54:23.145Z,-0.16
2023-01-17T22:56:52.815Z,-0.19
2023-01-17T22:59:20.777Z,-0.05
2023-01-17T23:01:48.891Z,-0.04
2023-01-17T23:04:17.251Z,-0.06
2023-01-17T23:06:45.421Z,-0.15
2023-01-17T23:09:15.600Z,-0.37
2023-01-17T23:11:46.724Z,-0.49
2023-01-17T23:14:18.744Z,-0.51
2023-01-17T23:17:07.615Z,-0.46
2023-01-17T23:19:38.137Z,-0.35
2023-01-17T23:22:17.502Z,-0.51
2023-01-17T23:24:48.033Z,-0.61
2023-01-17T23:27:35.518Z,-0.62
2023-01-17T23:30:07.436Z,-0.54
2023-01-17T23:32:35.567Z,-0.73
2023-01-17T23:35:03.798Z,-0.65
2023-01-17T23:37:50.493Z,-0.67
2023-01-17T23:40:19.507Z,-0.61
2023-01-17T23:43:05.310Z,-0.59
2023-01-17T23:45:37.386Z,-0.55
2023-01-17T23:48:09.401Z,-0.44
2023-01-17T23:50:38.451Z,-0.52
2023-01-17T23:53:07.992Z,-0.56
2023-01-17T23:55:37.429Z,-0.67
2023-01-17T23:58:06.131Z,-0.79
